Palo, Michigan
Current Conditions -  °F | °C
As of 7:54 PM on Saturday 22 Nov 2014 (Local Time) from KY70 Reporting Station
Haze Haze  
Wind Chill: 36°   Ceiling: 700
Heat Index: 42°   Visibility: 3mi
Dew Point: 42°   Wind: 12mph
Humidity: 99%   Direction: 210°SSW
Pressure: 29.87"   Gusts: NA
Location:  43.11°N, 84.99°W
Report Text: KY70 230054Z AUTO 21010KT 3SM BR OVC007 06/06 A2987 RMK AO2 T00580056
Loading
Personal Weather Stations






























Interactive Weather Map New forecast layout! Learn more

10-Day Weather Forecast

Advertisements
Track Severe Weather on mobile